Time;durP1;ratioP1;P1;durP2;ratioP2;P2;SDS_P1;SDS_P2;PMS_P1;PMS_P2;Temp;Humidity;BMP_temperature;BMP_pressure;BME280_temperature;BME280_humidity;BME280_pressure;Samples;Min_cycle;Max_cycle;Signal;HPM_P1;HPM_P2
2023/07/04 00:00:57;;;;;;;;;;;20.20;56.10;;;;;;5092897;28;19920;-57
2023/07/04 00:03:22;;;;;;;;;;;20.30;56.10;;;;;;5093644;28;19969;-58
2023/07/04 00:05:48;;;;;;;;;;;20.20;56.10;;;;;;5092620;28;20293;-57
2023/07/04 00:08:13;;;;;;;;;;;20.30;56.20;;;;;;5092334;28;19916;-57
2023/07/04 00:10:39;;;;;;;;;;;20.20;56.10;;;;;;5093475;28;19923;-57
2023/07/04 00:13:04;;;;;;;;;;;20.20;56.10;;;;;;5092329;28;19923;-57
2023/07/04 00:15:30;;;;;;;;;;;20.20;56.20;;;;;;5093109;28;19920;-57
2023/07/04 00:17:55;;;;;;;;;;;20.20;56.20;;;;;;5092063;28;20316;-57
2023/07/04 00:20:21;;;;;;;;;;;20.20;56.20;;;;;;5092282;28;20004;-57
2023/07/04 00:22:47;;;;;;;;;;;20.20;56.20;;;;;;5092467;28;20362;-57
2023/07/04 00:25:12;;;;;;;;;;;20.20;56.20;;;;;;5092065;28;19916;-57
2023/07/04 00:27:39;;;;;;;;;;;20.20;56.30;;;;;;5092218;28;20302;-57
2023/07/04 00:30:04;;;;;;;;;;;20.20;56.30;;;;;;5091995;28;19923;-57
2023/07/04 00:32:30;;;;;;;;;;;20.20;56.30;;;;;;5092050;28;19916;-57
2023/07/04 00:34:55;;;;;;;;;;;20.20;56.30;;;;;;5091718;28;19968;-58
2023/07/04 00:37:21;;;;;;;;;;;20.20;56.40;;;;;;5092127;28;19920;-57
2023/07/04 00:39:48;;;;;;;;;;;20.20;56.40;;;;;;5093098;28;20001;-57
2023/07/04 00:42:14;;;;;;;;;;;20.20;56.40;;;;;;5092963;28;19973;-57
2023/07/04 00:44:47;;;;;;;;;;;20.10;56.30;;;;;;5091735;28;19963;-57
2023/07/04 00:47:21;;;;;;;;;;;20.10;57.10;;;;;;5091499;28;19923;-57
2023/07/04 00:49:49;;;;;;;;;;;20.10;56.30;;;;;;5091960;28;19916;-57
2023/07/04 00:52:18;;;;;;;;;;;20.10;56.40;;;;;;5092883;28;20259;-57
2023/07/04 00:54:45;;;;;;;;;;;20.10;56.40;;;;;;5091635;28;19916;-57
2023/07/04 00:57:13;;;;;;;;;;;20.10;56.50;;;;;;5091508;28;20379;-57
2023/07/04 00:59:43;;;;;;;;;;;20.10;56.50;;;;;;5091792;28;20014;-57
2023/07/04 01:02:10;;;;;;;;;;;20.10;56.50;;;;;;5091686;28;19922;-57
2023/07/04 01:04:35;;;;;;;;;;;20.10;57.20;;;;;;5091760;28;20340;-57
2023/07/04 01:07:13;;;;;;;;;;;20.10;56.50;;;;;;5092689;28;20073;-57
2023/07/04 01:09:40;;;;;;;;;;;20.10;56.60;;;;;;5091430;28;19923;-57
2023/07/04 01:12:06;;;;;;;;;;;20.10;56.60;;;;;;5092353;28;19916;-57
2023/07/04 01:14:31;;;;;;;;;;;20.10;56.60;;;;;;5091065;28;19965;-57
2023/07/04 01:16:57;;;;;;;;;;;20.10;56.60;;;;;;5091228;28;19920;-57
2023/07/04 01:19:32;;;;;;;;;;;20.10;56.60;;;;;;5092652;28;20274;-57
2023/07/04 01:22:04;;;;;;;;;;;20.10;56.70;;;;;;5092571;28;20252;-57
2023/07/04 01:24:36;;;;;;;;;;;20.10;56.70;;;;;;5092434;28;19937;-57
2023/07/04 01:27:02;;;;;;;;;;;20.10;56.70;;;;;;5091507;28;19975;-57
2023/07/04 01:29:27;;;;;;;;;;;20.00;56.60;;;;;;5091052;28;19920;-57
2023/07/04 01:31:53;;;;;;;;;;;20.10;56.70;;;;;;5091156;28;20007;-57
2023/07/04 01:34:20;;;;;;;;;;;20.00;56.60;;;;;;5091074;28;19916;-57
2023/07/04 01:36:47;;;;;;;;;;;20.00;56.70;;;;;;5092320;28;19920;-57
2023/07/04 01:39:15;;;;;;;;;;;20.00;56.70;;;;;;5092311;28;19923;-57
2023/07/04 01:41:41;;;;;;;;;;;20.00;56.70;;;;;;5091365;28;19916;-57
2023/07/04 01:44:07;;;;;;;;;;;20.00;56.70;;;;;;5090959;28;19916;-57
2023/07/04 01:46:34;;;;;;;;;;;20.00;56.70;;;;;;5091291;28;19916;-57
2023/07/04 01:48:59;;;;;;;;;;;20.00;56.70;;;;;;5091243;28;20258;-57
2023/07/04 01:51:27;;;;;;;;;;;20.00;56.80;;;;;;5092275;28;19923;-58
2023/07/04 01:53:53;;;;;;;;;;;20.00;56.80;;;;;;5091217;28;19920;-57
2023/07/04 01:56:18;;;;;;;;;;;20.00;56.80;;;;;;5092058;28;19965;-57
2023/07/04 01:58:44;;;;;;;;;;;20.00;56.80;;;;;;5090744;28;19930;-57
2023/07/04 02:01:09;;;;;;;;;;;20.00;56.80;;;;;;5091217;28;20006;-57
2023/07/04 02:03:36;;;;;;;;;;;19.90;56.80;;;;;;5092248;28;19920;-57
2023/07/04 02:06:02;;;;;;;;;;;20.00;56.90;;;;;;5091151;28;19919;-57
2023/07/04 02:08:27;;;;;;;;;;;19.90;56.80;;;;;;5091118;28;19916;-57
2023/07/04 02:10:53;;;;;;;;;;;19.90;56.80;;;;;;5090662;28;19931;-57
2023/07/04 02:13:18;;;;;;;;;;;19.90;56.80;;;;;;5090877;28;19916;-57
2023/07/04 02:15:44;;;;;;;;;;;19.90;56.90;;;;;;5090432;28;19935;-57
2023/07/04 02:18:09;;;;;;;;;;;19.90;56.90;;;;;;5090667;28;20430;-57
2023/07/04 02:20:35;;;;;;;;;;;19.90;56.90;;;;;;5090581;28;19920;-57
2023/07/04 02:23:00;;;;;;;;;;;19.90;56.90;;;;;;5091859;28;20343;-57
2023/07/04 02:25:26;;;;;;;;;;;19.90;56.90;;;;;;5094292;28;19938;-57
2023/07/04 02:27:51;;;;;;;;;;;19.90;56.90;;;;;;5096058;28;19920;-57
2023/07/04 02:30:17;;;;;;;;;;;19.90;56.90;;;;;;5094179;28;19916;-57
2023/07/04 02:32:42;;;;;;;;;;;19.90;56.90;;;;;;5095627;28;19985;-57
2023/07/04 02:35:08;;;;;;;;;;;19.90;56.90;;;;;;5094273;28;19920;-57
2023/07/04 02:37:34;;;;;;;;;;;19.90;56.90;;;;;;5095514;28;20351;-57
2023/07/04 02:39:59;;;;;;;;;;;19.90;57.00;;;;;;5093991;28;19927;-57
2023/07/04 02:42:25;;;;;;;;;;;19.80;56.90;;;;;;5094025;28;19923;-57
2023/07/04 02:44:50;;;;;;;;;;;19.80;56.90;;;;;;5095237;28;19917;-57
2023/07/04 02:47:17;;;;;;;;;;;19.80;57.00;;;;;;5093802;28;19916;-57
2023/07/04 02:49:43;;;;;;;;;;;19.80;57.00;;;;;;5094208;28;19961;-57
2023/07/04 02:52:09;;;;;;;;;;;19.80;56.90;;;;;;5094973;28;19920;-57
2023/07/04 02:54:35;;;;;;;;;;;19.80;57.00;;;;;;5095147;28;19919;-57
2023/07/04 02:57:00;;;;;;;;;;;19.80;57.10;;;;;;5093658;28;20424;-57
2023/07/04 02:59:26;;;;;;;;;;;19.80;57.10;;;;;;5093719;28;19916;-57
2023/07/04 03:01:52;;;;;;;;;;;19.80;57.10;;;;;;5093806;28;20282;-57
2023/07/04 03:04:17;;;;;;;;;;;19.80;57.10;;;;;;5094887;28;19943;-57
2023/07/04 03:06:43;;;;;;;;;;;19.80;57.10;;;;;;5093853;28;20130;-57
2023/07/04 03:09:08;;;;;;;;;;;19.80;57.10;;;;;;5095024;28;20418;-57
2023/07/04 03:11:34;;;;;;;;;;;19.80;57.10;;;;;;5093708;28;19916;-57
2023/07/04 03:13:59;;;;;;;;;;;19.80;57.10;;;;;;5093470;28;19916;-60
2023/07/04 03:16:25;;;;;;;;;;;19.80;57.10;;;;;;5094237;28;19920;-57
2023/07/04 03:18:50;;;;;;;;;;;19.80;57.10;;;;;;5093859;28;19920;-58
2023/07/04 03:21:16;;;;;;;;;;;19.70;57.10;;;;;;5093185;28;19923;-57
2023/07/04 03:23:42;;;;;;;;;;;19.70;57.10;;;;;;5094667;28;19966;-57
2023/07/04 03:26:08;;;;;;;;;;;19.80;57.10;;;;;;5093262;28;20177;-57
2023/07/04 03:28:33;;;;;;;;;;;19.80;57.20;;;;;;5093422;28;19922;-57
2023/07/04 03:30:58;;;;;;;;;;;19.70;57.20;;;;;;5094375;28;19916;-57
2023/07/04 03:33:25;;;;;;;;;;;19.70;57.20;;;;;;5093196;28;20371;-57
2023/07/04 03:35:50;;;;;;;;;;;19.70;57.20;;;;;;5092940;28;19920;-57
2023/07/04 03:38:16;;;;;;;;;;;19.70;57.20;;;;;;5093250;28;19965;-57
2023/07/04 03:40:42;;;;;;;;;;;19.70;57.30;;;;;;5092925;28;20398;-57
2023/07/04 03:43:07;;;;;;;;;;;19.70;57.30;;;;;;5093108;28;20026;-57
2023/07/04 03:45:33;;;;;;;;;;;19.70;57.30;;;;;;5093108;28;20381;-58
2023/07/04 03:47:58;;;;;;;;;;;19.70;57.30;;;;;;5092895;28;19916;-57
2023/07/04 03:50:24;;;;;;;;;;;19.70;57.30;;;;;;5094205;28;20354;-57
2023/07/04 03:52:49;;;;;;;;;;;19.70;57.30;;;;;;5092582;28;20002;-57
2023/07/04 03:55:15;;;;;;;;;;;19.60;57.30;;;;;;5092843;28;20286;-57
2023/07/04 03:57:40;;;;;;;;;;;19.70;57.30;;;;;;5092799;28;19916;-57
2023/07/04 04:00:08;;;;;;;;;;;19.70;57.30;;;;;;5092799;28;19923;-57
2023/07/04 04:02:34;;;;;;;;;;;19.70;57.30;;;;;;5093638;28;20375;-57
2023/07/04 04:04:59;;;;;;;;;;;19.70;57.40;;;;;;5093849;28;19923;-57
2023/07/04 04:07:25;;;;;;;;;;;19.70;57.40;;;;;;5092681;28;19916;-57
2023/07/04 04:09:50;;;;;;;;;;;19.70;57.40;;;;;;5092391;28;19970;-57
2023/07/04 04:12:16;;;;;;;;;;;19.60;57.30;;;;;;5092581;28;19920;-57
2023/07/04 04:14:41;;;;;;;;;;;19.60;57.40;;;;;;5093246;28;20350;-57
2023/07/04 04:17:07;;;;;;;;;;;19.60;57.40;;;;;;5093459;28;19920;-57
2023/07/04 04:19:32;;;;;;;;;;;19.60;57.40;;;;;;5093236;28;19962;-57
2023/07/04 04:21:58;;;;;;;;;;;19.60;57.40;;;;;;5093383;28;20356;-59
2023/07/04 04:24:23;;;;;;;;;;;19.60;57.40;;;;;;5092233;28;19967;-57
2023/07/04 04:26:49;;;;;;;;;;;19.60;58.10;;;;;;5093383;28;20420;-57
2023/07/04 04:29:17;;;;;;;;;;;19.60;57.40;;;;;;5092290;28;19916;-57
2023/07/04 04:31:46;;;;;;;;;;;19.60;57.40;;;;;;5091925;28;19920;-57
2023/07/04 04:34:11;;;;;;;;;;;19.60;57.40;;;;;;5093161;28;20386;-57
2023/07/04 04:36:37;;;;;;;;;;;19.60;57.50;;;;;;5091781;28;19920;-57
2023/07/04 04:39:03;;;;;;;;;;;19.60;57.40;;;;;;5092010;28;19939;-57
2023/07/04 04:41:29;;;;;;;;;;;19.60;57.50;;;;;;5091818;28;20064;-57
2023/07/04 04:43:55;;;;;;;;;;;19.60;57.50;;;;;;5092942;28;20006;-57
2023/07/04 04:46:21;;;;;;;;;;;19.60;57.50;;;;;;5091657;28;19916;-57
2023/07/04 04:48:47;;;;;;;;;;;19.60;57.50;;;;;;5091663;28;19916;-57
2023/07/04 04:51:13;;;;;;;;;;;19.60;57.50;;;;;;5091784;28;19916;-57
2023/07/04 04:53:39;;;;;;;;;;;19.60;57.50;;;;;;5091631;28;19923;-58
2023/07/04 04:56:05;;;;;;;;;;;19.60;57.50;;;;;;5091405;28;19960;-57
2023/07/04 04:58:31;;;;;;;;;;;19.60;57.60;;;;;;5093216;28;19995;-57
2023/07/04 05:00:56;;;;;;;;;;;19.60;57.60;;;;;;5091519;28;19947;-57
2023/07/04 05:03:23;;;;;;;;;;;19.60;57.60;;;;;;5091751;28;19916;-57
2023/07/04 05:05:48;;;;;;;;;;;19.60;57.60;;;;;;5092623;28;19985;-57
2023/07/04 05:08:14;;;;;;;;;;;19.60;57.60;;;;;;5074535;28;19916;-57
2023/07/04 05:10:39;;;;;;;;;;;19.60;57.60;;;;;;5092590;28;19916;-57
2023/07/04 05:13:05;;;;;;;;;;;19.60;57.60;;;;;;5091393;28;20286;-56
2023/07/04 05:15:30;;;;;;;;;;;19.60;57.60;;;;;;5092259;28;19924;-57
2023/07/04 05:17:56;;;;;;;;;;;19.60;57.60;;;;;;5092617;28;20369;-57
2023/07/04 05:20:23;;;;;;;;;;;19.50;57.50;;;;;;5091144;28;19954;-57
2023/07/04 05:22:49;;;;;;;;;;;19.60;57.60;;;;;;5091305;28;19916;-57
2023/07/04 05:25:15;;;;;;;;;;;19.60;57.60;;;;;;5091457;28;19916;-57
2023/07/04 05:27:41;;;;;;;;;;;19.50;57.50;;;;;;5091207;28;19923;-57
2023/07/04 05:30:08;;;;;;;;;;;19.60;57.60;;;;;;5091490;28;19920;-58
2023/07/04 05:32:33;;;;;;;;;;;19.50;57.50;;;;;;5092300;28;19922;-57
2023/07/04 05:34:59;;;;;;;;;;;19.60;57.60;;;;;;5092218;28;19916;-57
2023/07/04 05:37:25;;;;;;;;;;;19.60;57.60;;;;;;5091294;28;19952;-57
2023/07/04 05:39:51;;;;;;;;;;;19.60;57.60;;;;;;5091087;28;19963;-57
2023/07/04 05:42:16;;;;;;;;;;;19.60;57.60;;;;;;5089453;28;19924;-57
2023/07/04 05:44:42;;;;;;;;;;;19.60;57.60;;;;;;5089632;28;20002;-58
2023/07/04 05:47:08;;;;;;;;;;;19.50;57.60;;;;;;5088690;28;19916;-57
2023/07/04 05:49:33;;;;;;;;;;;19.50;57.60;;;;;;5066005;28;19971;-58
2023/07/04 05:51:59;;;;;;;;;;;19.50;57.80;;;;;;5072353;28;20591;-57
2023/07/04 05:54:24;;;;;;;;;;;19.50;57.80;;;;;;5075839;28;19920;-58
2023/07/04 05:56:50;;;;;;;;;;;19.60;58.10;;;;;;5079514;28;19924;-57
2023/07/04 05:59:16;;;;;;;;;;;19.60;58.60;;;;;;5082747;28;19946;-57
2023/07/04 06:01:43;;;;;;;;;;;19.60;58.60;;;;;;5086904;28;19928;-57
2023/07/04 06:04:09;;;;;;;;;;;19.60;58.80;;;;;;5085606;28;19995;-58
2023/07/04 06:06:37;;;;;;;;;;;19.60;58.90;;;;;;5086024;28;19924;-56
2023/07/04 06:09:05;;;;;;;;;;;19.60;59.20;;;;;;5105176;27;19924;-56
2023/07/04 06:11:31;;;;;;;;;;;19.60;59.20;;;;;;5087166;28;19928;-57
2023/07/04 06:13:57;;;;;;;;;;;19.60;59.50;;;;;;5085630;28;19920;-56
2023/07/04 06:16:23;;;;;;;;;;;19.60;59.50;;;;;;5087466;28;19950;-56
2023/07/04 06:18:48;;;;;;;;;;;19.50;59.50;;;;;;5105904;27;20422;-56
2023/07/04 06:21:16;;;;;;;;;;;19.60;59.60;;;;;;5087666;27;19928;-56
2023/07/04 06:23:41;;;;;;;;;;;19.60;59.70;;;;;;5132892;27;20125;-56
2023/07/04 06:26:08;;;;;;;;;;;19.60;60.40;;;;;;5123927;27;19919;-56
2023/07/04 06:28:34;;;;;;;;;;;19.60;59.90;;;;;;5127917;27;20374;-57
2023/07/04 06:31:02;;;;;;;;;;;19.60;60.10;;;;;;5095428;27;19924;-57
2023/07/04 06:33:27;;;;;;;;;;;19.60;60.20;;;;;;5108303;27;19973;-57
2023/07/04 06:35:53;;;;;;;;;;;19.70;60.30;;;;;;5129298;27;20294;-58
2023/07/04 06:38:20;;;;;;;;;;;19.70;60.40;;;;;;5108870;27;19920;-57
2023/07/04 06:40:53;;;;;;;;;;;19.70;60.20;;;;;;5128688;27;20010;-59
2023/07/04 06:43:19;;;;;;;;;;;19.70;60.30;;;;;;5099091;27;19919;-58
2023/07/04 06:45:44;;;;;;;;;;;19.70;60.10;;;;;;5114743;27;19934;-59
2023/07/04 06:48:10;;;;;;;;;;;19.70;60.10;;;;;;5102198;27;19928;-59
2023/07/04 06:50:36;;;;;;;;;;;19.70;60.00;;;;;;5132991;27;19955;-59
2023/07/04 06:53:01;;;;;;;;;;;19.70;60.10;;;;;;5127840;27;19923;-59
2023/07/04 06:55:27;;;;;;;;;;;19.70;60.10;;;;;;5116412;27;19928;-58
2023/07/04 06:57:52;;;;;;;;;;;19.70;60.00;;;;;;5098357;27;19964;-58
2023/07/04 07:00:18;;;;;;;;;;;19.70;59.80;;;;;;5083876;27;19973;-58
2023/07/04 07:02:47;;;;;;;;;;;19.80;59.90;;;;;;5095605;27;19919;-58
2023/07/04 07:05:12;;;;;;;;;;;19.80;59.90;;;;;;5097153;27;20420;-58
2023/07/04 07:07:39;;;;;;;;;;;19.70;59.70;;;;;;5127719;27;19928;-57
2023/07/04 07:10:04;;;;;;;;;;;19.70;59.70;;;;;;5111153;27;19927;-57
2023/07/04 07:12:31;;;;;;;;;;;19.80;60.00;;;;;;5094365;28;20362;-57
2023/07/04 07:14:57;;;;;;;;;;;19.80;60.20;;;;;;5115879;27;20347;-57
2023/07/04 07:17:22;;;;;;;;;;;19.80;60.00;;;;;;5113642;27;19930;-57
2023/07/04 07:19:48;;;;;;;;;;;19.80;60.10;;;;;;5117564;27;19930;-57
2023/07/04 07:22:14;;;;;;;;;;;19.80;60.30;;;;;;5128277;27;20716;-57
2023/07/04 07:24:39;;;;;;;;;;;19.90;60.20;;;;;;5095508;27;19920;-58
2023/07/04 07:27:05;;;;;;;;;;;19.80;60.40;;;;;;5129203;27;19923;-57
2023/07/04 07:29:30;;;;;;;;;;;19.80;60.30;;;;;;5127725;27;19924;-57
2023/07/04 07:31:56;;;;;;;;;;;19.90;60.40;;;;;;5096782;27;19920;-56
2023/07/04 07:34:21;;;;;;;;;;;19.90;60.60;;;;;;5110435;27;20112;-57
2023/07/04 07:36:47;;;;;;;;;;;19.90;60.40;;;;;;5127207;27;19928;-57
2023/07/04 07:39:14;;;;;;;;;;;19.90;60.30;;;;;;5130691;27;19954;-57
2023/07/04 07:41:41;;;;;;;;;;;19.90;60.40;;;;;;5128233;27;19930;-57
2023/07/04 07:44:07;;;;;;;;;;;19.90;60.60;;;;;;5100527;27;19944;-57
2023/07/04 07:46:34;;;;;;;;;;;19.90;60.60;;;;;;5126772;27;19924;-57
2023/07/04 07:49:00;;;;;;;;;;;19.90;60.50;;;;;;5094240;27;19920;-57
2023/07/04 07:51:26;;;;;;;;;;;19.90;60.50;;;;;;5110696;27;19926;-57
2023/07/04 07:53:53;;;;;;;;;;;20.00;60.60;;;;;;5122417;27;19934;-57
2023/07/04 07:56:20;;;;;;;;;;;20.00;60.60;;;;;;5110719;27;19953;-59
2023/07/04 07:58:46;;;;;;;;;;;20.00;61.00;;;;;;5088256;27;20375;-56
2023/07/04 08:01:12;;;;;;;;;;;19.90;60.60;;;;;;5090048;27;19928;-58
2023/07/04 08:03:38;;;;;;;;;;;20.00;60.70;;;;;;5106552;27;20377;-57
2023/07/04 08:06:04;;;;;;;;;;;20.00;60.90;;;;;;5126308;27;19926;-58
2023/07/04 08:08:29;;;;;;;;;;;20.00;60.50;;;;;;5126657;27;19927;-57
2023/07/04 08:10:55;;;;;;;;;;;20.00;60.90;;;;;;5107937;27;20319;-58
2023/07/04 08:13:20;;;;;;;;;;;20.00;61.00;;;;;;5122609;27;19943;-58
2023/07/04 08:15:53;;;;;;;;;;;20.10;60.90;;;;;;5093384;27;19966;-57
2023/07/04 08:18:19;;;;;;;;;;;20.10;61.00;;;;;;5129687;27;20297;-57
2023/07/04 08:20:55;;;;;;;;;;;20.10;60.80;;;;;;5100628;27;19919;-57
2023/07/04 08:23:20;;;;;;;;;;;20.10;60.80;;;;;;5112542;27;20539;-58
2023/07/04 08:25:46;;;;;;;;;;;20.10;60.70;;;;;;5126707;27;20006;-56
2023/07/04 08:28:11;;;;;;;;;;;20.10;60.40;;;;;;5128060;27;20341;-58
2023/07/04 08:30:37;;;;;;;;;;;20.20;60.50;;;;;;5128162;27;20013;-58
2023/07/04 08:33:02;;;;;;;;;;;20.20;60.20;;;;;;5128700;27;19924;-58
2023/07/04 08:35:28;;;;;;;;;;;20.20;60.00;;;;;;5131332;27;19970;-58
2023/07/04 08:37:53;;;;;;;;;;;20.20;59.90;;;;;;5129507;27;20318;-58
2023/07/04 08:40:19;;;;;;;;;;;20.30;59.90;;;;;;5114266;27;19930;-58
2023/07/04 08:42:45;;;;;;;;;;;20.30;59.80;;;;;;5115653;27;20600;-58
2023/07/04 08:45:16;;;;;;;;;;;20.30;59.70;;;;;;5093790;27;19975;-57
2023/07/04 08:47:42;;;;;;;;;;;20.30;59.40;;;;;;5100645;28;19935;-57
2023/07/04 08:50:12;;;;;;;;;;;20.30;59.20;;;;;;5125149;27;19923;-57
2023/07/04 08:52:41;;;;;;;;;;;20.30;59.20;;;;;;5106941;27;20978;-57
2023/07/04 08:55:10;;;;;;;;;;;20.30;59.30;;;;;;5089595;27;19924;-56
2023/07/04 08:57:47;;;;;;;;;;;20.30;59.50;;;;;;5084569;27;19923;-57
2023/07/04 09:00:20;;;;;;;;;;;20.40;59.70;;;;;;5105260;27;19938;-58
2023/07/04 09:03:05;;;;;;;;;;;20.40;59.70;;;;;;5121477;27;19927;-58
2023/07/04 09:05:41;;;;;;;;;;;20.40;59.70;;;;;;5103429;27;19930;-58
2023/07/04 09:10:58;;;;;;;;;;;20.40;59.60;;;;;;5078576;27;19931;-57
2023/07/04 09:13:26;;;;;;;;;;;20.40;59.40;;;;;;5088490;28;19928;-57
2023/07/04 09:15:51;;;;;;;;;;;20.40;60.00;;;;;;5084328;28;19931;-59
2023/07/04 09:18:21;;;;;;;;;;;20.40;59.80;;;;;;5072121;28;19923;-58
2023/07/04 09:21:07;;;;;;;;;;;20.40;59.90;;;;;;5082962;28;20442;-60
2023/07/04 09:23:32;;;;;;;;;;;20.40;59.90;;;;;;5087086;28;20350;-58
2023/07/04 09:25:58;;;;;;;;;;;20.40;59.90;;;;;;5081962;28;19920;-58
2023/07/04 09:28:25;;;;;;;;;;;20.50;60.30;;;;;;5082871;28;20007;-56
2023/07/04 09:30:52;;;;;;;;;;;20.50;60.30;;;;;;5107333;27;19932;-58
2023/07/04 09:33:19;;;;;;;;;;;20.60;60.20;;;;;;5077407;28;19976;-57
2023/07/04 09:35:45;;;;;;;;;;;20.60;60.20;;;;;;5081463;28;20050;-57
2023/07/04 09:38:10;;;;;;;;;;;20.70;60.20;;;;;;5081909;28;20082;-57
2023/07/04 09:40:39;;;;;;;;;;;20.80;60.00;;;;;;5083164;28;19931;-57
2023/07/04 09:43:04;;;;;;;;;;;20.80;59.80;;;;;;5074359;28;19935;-57
2023/07/04 09:45:30;;;;;;;;;;;20.90;59.60;;;;;;5078681;28;19928;-56
2023/07/04 09:47:55;;;;;;;;;;;20.90;59.70;;;;;;5077423;28;19928;-58
2023/07/04 09:50:29;;;;;;;;;;;21.00;59.60;;;;;;5075697;28;20355;-57
2023/07/04 09:53:03;;;;;;;;;;;21.00;59.50;;;;;;5078778;28;19928;-57
2023/07/04 09:55:29;;;;;;;;;;;21.00;59.40;;;;;;5077970;28;19924;-57
2023/07/04 09:58:15;;;;;;;;;;;21.10;59.30;;;;;;5080083;28;19939;-57
2023/07/04 10:00:42;;;;;;;;;;;21.10;59.50;;;;;;5079097;28;20657;-56
2023/07/04 10:03:09;;;;;;;;;;;21.10;59.50;;;;;;5088710;28;20481;-56
2023/07/04 10:05:35;;;;;;;;;;;21.10;59.60;;;;;;5084886;28;19927;-57
2023/07/04 10:10:52;;;;;;;;;;;21.20;59.70;;;;;;5089056;27;19942;-57
2023/07/04 10:13:20;;;;;;;;;;;21.20;59.70;;;;;;5090320;28;19925;-58
2023/07/04 10:15:46;;;;;;;;;;;21.20;59.70;;;;;;5086905;28;19924;-57
2023/07/04 10:18:23;;;;;;;;;;;21.30;59.60;;;;;;5085170;28;19928;-58
2023/07/04 10:20:50;;;;;;;;;;;21.20;59.40;;;;;;5089353;28;19924;-57
2023/07/04 10:23:16;;;;;;;;;;;21.30;59.30;;;;;;5090025;28;19978;-57
2023/07/04 10:25:43;;;;;;;;;;;21.30;59.10;;;;;;5116386;27;20432;-57
2023/07/04 10:28:12;;;;;;;;;;;21.30;59.00;;;;;;5120120;27;20038;-58
2023/07/04 10:30:39;;;;;;;;;;;21.30;59.00;;;;;;5091667;28;20018;-57
2023/07/04 10:33:24;;;;;;;;;;;21.30;58.90;;;;;;5095442;28;19959;-57
2023/07/04 10:35:50;;;;;;;;;;;21.30;58.90;;;;;;5093706;28;19930;-57
2023/07/04 10:40:57;;;;;;;;;;;21.20;58.70;;;;;;5091607;27;20396;-57
2023/07/04 10:43:26;;;;;;;;;;;21.20;58.60;;;;;;5078203;28;19970;-58
2023/07/04 10:45:53;;;;;;;;;;;21.20;59.30;;;;;;5066847;28;19986;-57
2023/07/04 10:48:19;;;;;;;;;;;21.20;58.50;;;;;;5071532;28;20237;-58
2023/07/04 10:50:48;;;;;;;;;;;21.20;58.60;;;;;;5073351;28;19982;-57
2023/07/04 10:53:14;;;;;;;;;;;21.20;58.70;;;;;;5075579;28;19931;-57
2023/07/04 10:55:43;;;;;;;;;;;21.20;58.70;;;;;;5076353;28;19929;-57
2023/07/04 10:58:12;;;;;;;;;;;21.20;58.80;;;;;;5073988;28;20011;-57
2023/07/04 11:00:42;;;;;;;;;;;21.20;58.80;;;;;;5076200;28;20014;-57
2023/07/04 11:03:13;;;;;;;;;;;21.20;59.00;;;;;;5076058;28;19928;-57
2023/07/04 11:05:41;;;;;;;;;;;21.20;58.90;;;;;;5074473;28;20383;-57
2023/07/04 11:08:07;;;;;;;;;;;21.20;59.00;;;;;;5074331;28;20297;-57
2023/07/04 11:10:38;;;;;;;;;;;21.20;59.10;;;;;;5070585;28;19921;-58
2023/07/04 11:13:03;;;;;;;;;;;21.20;59.10;;;;;;5074038;28;20112;-57
2023/07/04 11:15:31;;;;;;;;;;;21.20;59.20;;;;;;5104765;28;20001;-57
2023/07/04 11:17:56;;;;;;;;;;;21.20;59.30;;;;;;5104021;28;19962;-57
2023/07/04 11:20:26;;;;;;;;;;;21.20;59.10;;;;;;5074788;28;20019;-56
2023/07/04 11:22:57;;;;;;;;;;;21.20;59.20;;;;;;5075245;28;19936;-57
2023/07/04 11:28:32;;;;;;;;;;;21.20;59.40;;;;;;5062636;28;20120;-58
2023/07/04 11:31:17;;;;;;;;;;;21.20;59.30;;;;;;5053441;28;19924;-58
2023/07/04 11:34:01;;;;;;;;;;;21.30;59.10;;;;;;5071716;28;19924;-57
2023/07/04 11:36:29;;;;;;;;;;;21.20;58.80;;;;;;5053499;28;20618;-58
2023/07/04 11:39:00;;;;;;;;;;;21.20;58.70;;;;;;5052808;28;19971;-58
2023/07/04 11:47:04;;;;;;;;;;;21.20;58.60;;;;;;5086307;27;19920;-57
2023/07/04 11:49:30;;;;;;;;;;;21.10;58.60;;;;;;5088544;28;19931;-57
2023/07/04 11:54:43;;;;;;;;;;;21.20;58.60;;;;;;5072742;27;19921;-57
2023/07/04 11:57:09;;;;;;;;;;;21.10;58.70;;;;;;5069917;28;20515;-57
2023/07/04 11:59:39;;;;;;;;;;;21.20;58.80;;;;;;5067432;28;19928;-57
2023/07/04 12:02:05;;;;;;;;;;;21.20;59.00;;;;;;5066702;28;19931;-57
2023/07/04 12:07:18;;;;;;;;;;;21.30;59.10;;;;;;5068953;27;19921;-57
2023/07/04 12:09:46;;;;;;;;;;;21.30;59.20;;;;;;5049315;28;20744;-57
2023/07/04 12:12:16;;;;;;;;;;;21.30;59.20;;;;;;5087724;28;19925;-58
2023/07/04 12:14:43;;;;;;;;;;;21.30;59.20;;;;;;5088800;28;19931;-58
2023/07/04 12:17:10;;;;;;;;;;;21.30;59.30;;;;;;5051601;28;19924;-57
2023/07/04 12:19:36;;;;;;;;;;;21.30;59.50;;;;;;5051881;28;19929;-58
2023/07/04 12:22:01;;;;;;;;;;;21.30;59.60;;;;;;5074194;28;19973;-57
2023/07/04 12:24:28;;;;;;;;;;;21.30;59.60;;;;;;5091666;28;20288;-57
2023/07/04 12:26:54;;;;;;;;;;;21.40;59.60;;;;;;5049937;28;19928;-57
2023/07/04 12:29:20;;;;;;;;;;;21.30;59.70;;;;;;5049110;28;19928;-57
2023/07/04 12:31:45;;;;;;;;;;;21.40;59.70;;;;;;5042794;28;19929;-57
2023/07/04 12:34:11;;;;;;;;;;;21.40;59.70;;;;;;5043760;28;19931;-58
2023/07/04 12:36:43;;;;;;;;;;;21.40;59.20;;;;;;5045414;28;19936;-57
2023/07/04 12:39:09;;;;;;;;;;;21.40;59.60;;;;;;5042929;28;19924;-56
2023/07/04 12:41:38;;;;;;;;;;;21.40;59.50;;;;;;5080858;28;19970;-57
2023/07/04 12:44:05;;;;;;;;;;;21.40;59.50;;;;;;5054328;28;20159;-57
2023/07/04 12:46:31;;;;;;;;;;;21.40;59.50;;;;;;5047134;28;19962;-57
2023/07/04 12:48:57;;;;;;;;;;;21.40;59.20;;;;;;5052245;28;20604;-58
2023/07/04 12:51:25;;;;;;;;;;;21.40;59.20;;;;;;5047445;28;19928;-57
2023/07/04 12:53:51;;;;;;;;;;;21.40;59.00;;;;;;5048444;28;20269;-57
2023/07/04 12:56:17;;;;;;;;;;;21.40;59.00;;;;;;5050893;28;20505;-57
2023/07/04 12:58:43;;;;;;;;;;;21.40;59.20;;;;;;5081027;28;20335;-57
2023/07/04 13:01:10;;;;;;;;;;;21.40;59.20;;;;;;5058381;28;19924;-56
2023/07/04 13:03:37;;;;;;;;;;;21.40;58.90;;;;;;5056448;28;20308;-57
2023/07/04 13:06:06;;;;;;;;;;;21.50;58.50;;;;;;5057728;28;19940;-57
2023/07/04 13:08:32;;;;;;;;;;;21.40;58.10;;;;;;5088679;28;19954;-57
2023/07/04 13:10:59;;;;;;;;;;;21.50;57.90;;;;;;5051332;28;19928;-58
2023/07/04 13:16:10;;;;;;;;;;;21.40;57.40;;;;;;5086159;27;19927;-57
2023/07/04 13:18:38;;;;;;;;;;;21.50;57.00;;;;;;5088682;28;20015;-58
2023/07/04 13:21:03;;;;;;;;;;;21.50;56.90;;;;;;5058023;28;20394;-58
2023/07/04 13:23:31;;;;;;;;;;;21.40;57.00;;;;;;5056460;28;19924;-57
2023/07/04 13:25:57;;;;;;;;;;;21.50;57.00;;;;;;5056834;28;19932;-58
2023/07/04 13:28:26;;;;;;;;;;;21.50;56.70;;;;;;5050462;28;19936;-57
2023/07/04 13:30:52;;;;;;;;;;;21.50;56.50;;;;;;5051101;28;19921;-57
2023/07/04 13:33:34;;;;;;;;;;;21.50;56.40;;;;;;5048781;28;19929;-57
2023/07/04 13:36:08;;;;;;;;;;;21.50;56.60;;;;;;5085170;28;19929;-57
2023/07/04 13:38:34;;;;;;;;;;;21.50;56.50;;;;;;5056601;28;20036;-57
2023/07/04 13:41:00;;;;;;;;;;;21.50;56.50;;;;;;5054235;28;20007;-57
2023/07/04 13:43:26;;;;;;;;;;;21.40;56.50;;;;;;5062228;28;19967;-57
2023/07/04 13:45:51;;;;;;;;;;;21.50;56.50;;;;;;5061319;28;19933;-57
2023/07/04 13:48:17;;;;;;;;;;;21.50;56.50;;;;;;5060629;28;19920;-57
2023/07/04 13:50:43;;;;;;;;;;;21.40;56.50;;;;;;5060873;28;19960;-57
2023/07/04 13:53:08;;;;;;;;;;;21.50;56.50;;;;;;5080494;28;19924;-57
2023/07/04 13:55:34;;;;;;;;;;;21.40;56.50;;;;;;5083483;28;19924;-57
2023/07/04 13:58:00;;;;;;;;;;;21.40;56.50;;;;;;5067658;28;19935;-58
2023/07/04 14:00:26;;;;;;;;;;;21.40;56.50;;;;;;5063796;28;20393;-57
2023/07/04 14:02:51;;;;;;;;;;;21.40;56.60;;;;;;5063445;28;20341;-57
2023/07/04 14:05:17;;;;;;;;;;;21.30;56.50;;;;;;5063188;28;19920;-57
2023/07/04 14:07:42;;;;;;;;;;;21.40;56.50;;;;;;5062156;28;19928;-56
2023/07/04 14:10:09;;;;;;;;;;;21.40;56.50;;;;;;5060054;28;19927;-57
2023/07/04 14:12:34;;;;;;;;;;;21.40;56.50;;;;;;5095701;28;20015;-57
2023/07/04 14:15:00;;;;;;;;;;;21.40;56.50;;;;;;5051124;28;19937;-57
2023/07/04 14:17:26;;;;;;;;;;;21.40;56.40;;;;;;5045562;28;19921;-57
2023/07/04 14:19:52;;;;;;;;;;;21.40;56.40;;;;;;5045331;28;20358;-57
2023/07/04 14:22:18;;;;;;;;;;;21.40;56.50;;;;;;5062700;28;19931;-57
2023/07/04 14:24:44;;;;;;;;;;;21.40;56.50;;;;;;5096834;28;19921;-58
2023/07/04 14:27:09;;;;;;;;;;;21.40;56.50;;;;;;5051099;28;20485;-57
2023/07/04 14:29:35;;;;;;;;;;;21.30;56.40;;;;;;5048060;28;19943;-57
2023/07/04 14:32:00;;;;;;;;;;;21.30;56.40;;;;;;5044227;28;19960;-57
2023/07/04 14:34:29;;;;;;;;;;;21.30;56.30;;;;;;5038586;28;19987;-57
2023/07/04 14:36:55;;;;;;;;;;;21.30;56.30;;;;;;5077911;28;19921;-57
2023/07/04 14:39:20;;;;;;;;;;;21.40;56.40;;;;;;5030964;28;20427;-57